< < Back
Terminal Aerodrome Forecast


Current Version              Previous Versions:   1  2  3  4  5  6  7  8  9  

Terminal Aerodrome Forecast

530
FTUS42 KTAE 292300
TAFVLD
TAF
KVLD 292334Z 3000/3024 VRB03KT P6SM FEW060 SCT250=

Latest METAR

978
SAUS70 KWBC 301100 RRF
MTRVLD
METAR KVLD 301053Z 35003KT 10SM CLR 19/15 A2998 RMK AO2 SLP158
T01940150


USA.gov is the U.S. government's official web portal to all federal, state and local government web resources and services.